Time;durP1;ratioP1;P1;durP2;ratioP2;P2;SDS_P1;SDS_P2;PMS_P1;PMS_P2;Temp;Humidity;BMP_temperature;BMP_pressure;BME280_temperature;BME280_humidity;BME280_pressure;Samples;Min_cycle;Max_cycle;Signal;HPM_P1;HPM_P2
2022/12/29 00:00:14;;;;;;;8.23;4.63;;;;;;;-2.44;100.00;101481.23;1783041;80;21007;-74
2022/12/29 00:02:42;;;;;;;9.77;4.57;;;;;;;-2.44;100.00;101484.77;1782746;80;21007;-75
2022/12/29 00:05:10;;;;;;;8.67;4.67;;;;;;;-2.43;100.00;101481.66;1782454;80;21054;-74
2022/12/29 00:07:38;;;;;;;11.83;4.83;;;;;;;-2.42;100.00;101473.66;1782742;80;21015;-74
2022/12/29 00:10:08;;;;;;;12.73;5.00;;;;;;;-2.39;100.00;101483.27;1782985;80;21022;-74
2022/12/29 00:15:37;;;;;;;10.97;4.37;;;;;;;-2.39;100.00;101481.50;1782694;79;21547;-76
2022/12/29 00:18:04;;;;;;;8.33;4.03;;;;;;;-2.38;100.00;101473.09;1782704;80;20996;-73
2022/12/29 00:44:04;;;;;;;22.77;11.03;;;;;;;-2.33;100.00;101470.68;1782892;80;20979;-75
2022/12/29 00:45:19;;;;;;;13.20;5.87;;;;;;;-2.31;100.00;101481.23;1783024;79;21430;-74
2022/12/29 00:47:47;;;;;;;11.53;5.70;;;;;;;-2.29;100.00;101479.39;1745571;82;21440;-75
2022/12/29 00:50:14;;;;;;;13.17;5.17;;;;;;;-2.28;100.00;101469.20;1745574;82;21042;-75
2022/12/29 00:52:41;;;;;;;10.20;4.87;;;;;;;-2.27;100.00;101474.89;1745820;82;20963;-74
2022/12/29 00:55:08;;;;;;;11.77;5.30;;;;;;;-2.28;100.00;101471.86;1745486;82;21050;-74
2022/12/29 00:57:35;;;;;;;15.17;5.83;;;;;;;-2.28;100.00;101465.23;1745840;82;21053;-75
2022/12/29 01:00:03;;;;;;;12.73;5.07;;;;;;;-2.28;100.00;101467.88;1745721;82;21037;-74
2022/12/29 01:02:30;;;;;;;11.83;5.27;;;;;;;-2.25;100.00;101476.17;1745655;82;20979;-75
2022/12/29 01:04:57;;;;;;;19.97;6.53;;;;;;;-2.24;100.00;101465.98;1745518;82;21481;-75
2022/12/29 01:07:25;;;;;;;14.60;6.07;;;;;;;-2.28;100.00;101463.91;1745668;82;20982;-75
2022/12/29 01:10:10;;;;;;;13.60;5.80;;;;;;;-2.29;100.00;101462.16;1745460;82;21094;-75
2022/12/29 01:12:44;;;;;;;11.17;5.07;;;;;;;-2.27;100.00;101454.16;1745114;82;21030;-75
2022/12/29 01:15:13;;;;;;;13.00;4.97;;;;;;;-2.26;100.00;101457.23;1746607;82;21114;-75
2022/12/29 01:17:42;;;;;;;11.10;5.07;;;;;;;-2.26;100.00;101455.91;1748224;82;21038;-73
2022/12/29 01:20:10;;;;;;;9.33;4.73;;;;;;;-2.24;100.00;101459.36;1746111;82;20997;-75
2022/12/29 01:22:37;;;;;;;10.23;4.80;;;;;;;-2.23;100.00;101459.75;1744942;82;20979;-75
2022/12/29 01:25:08;;;;;;;13.67;6.23;;;;;;;-2.22;100.00;101462.82;1745253;82;21058;-74
2022/12/29 01:27:35;;;;;;;13.23;6.03;;;;;;;-2.20;100.00;101460.98;1776356;80;21053;-74
2022/12/29 01:30:04;;;;;;;14.87;6.40;;;;;;;-2.20;100.00;101463.16;1745043;82;21037;-75
2022/12/29 01:32:32;;;;;;;14.33;5.87;;;;;;;-2.18;100.00;101452.06;1745136;82;21050;-75
2022/12/29 01:34:59;;;;;;;11.13;5.23;;;;;;;-2.18;100.00;101459.12;1745029;82;21027;-74
2022/12/29 01:37:26;;;;;;;12.63;5.50;;;;;;;-2.18;100.00;101461.78;1745079;82;20975;-75
2022/12/29 01:39:53;;;;;;;10.17;4.90;;;;;;;-2.19;100.00;101471.52;1745070;82;21065;-74
2022/12/29 01:42:26;;;;;;;11.77;5.20;;;;;;;-2.20;100.00;101463.16;1780773;80;21042;-76
2022/12/29 01:45:11;;;;;;;16.43;5.90;;;;;;;-2.20;100.00;101459.18;1744694;82;21042;-75
2022/12/29 01:47:51;;;;;;;15.47;5.90;;;;;;;-2.20;100.00;101457.00;1745159;82;21050;-75
2022/12/29 01:50:32;;;;;;;13.93;6.37;;;;;;;-2.21;100.00;101455.26;1744681;82;20991;-75
2022/12/29 01:53:13;;;;;;;13.70;6.30;;;;;;;-2.22;100.00;101454.41;1744922;82;21440;-75
2022/12/29 01:55:49;;;;;;;18.53;6.70;;;;;;;-2.22;100.00;101457.52;1745179;82;21069;-76
2022/12/29 01:58:17;;;;;;;12.87;5.77;;;;;;;-2.22;100.00;101461.49;1745253;82;21022;-74
2022/12/29 02:00:45;;;;;;;14.37;5.53;;;;;;;-2.21;100.00;101469.39;1780662;80;21031;-76
2022/12/29 02:03:12;;;;;;;13.07;5.80;;;;;;;-2.20;100.00;101475.55;1781030;80;21058;-76
2022/12/29 02:05:59;;;;;;;13.27;5.63;;;;;;;-2.20;100.00;101472.90;1780562;80;21023;-74
2022/12/29 02:08:28;;;;;;;14.83;5.80;;;;;;;-2.19;100.00;101472.85;1781045;80;21476;-75
2022/12/29 02:10:56;;;;;;;14.07;6.00;;;;;;;-2.19;100.00;101470.67;1780853;80;21062;-76
2022/12/29 02:13:25;;;;;;;13.87;6.03;;;;;;;-2.19;100.00;101468.88;1780693;80;21027;-75
2022/12/29 02:16:16;;;;;;;15.03;6.50;;;;;;;-2.18;100.00;101465.32;1744766;82;21057;-76
2022/12/29 02:18:58;;;;;;;16.53;6.63;;;;;;;-2.16;100.00;101467.45;1745018;82;21051;-74
2022/12/29 02:21:47;;;;;;;14.87;6.43;;;;;;;-2.15;100.00;101470.95;1745480;82;21014;-75
2022/12/29 02:24:48;;;;;;;12.77;5.93;;;;;;;-2.18;100.00;101469.73;1744992;82;21448;-75
2022/12/29 02:27:55;;;;;;;13.57;5.80;;;;;;;-2.15;100.00;101468.30;1775864;80;21066;-76
2022/12/29 02:30:44;;;;;;;13.80;6.80;;;;;;;-2.15;100.00;101464.33;1744981;82;21034;-75
2022/12/29 02:33:50;;;;;;;15.87;6.93;;;;;;;-2.15;100.00;101463.00;1745262;82;21042;-74
2022/12/29 02:36:42;;;;;;;18.13;6.60;;;;;;;-2.14;100.00;101466.93;1721568;82;21022;-75
2022/12/29 02:39:32;;;;;;;11.97;5.93;;;;;;;-2.08;100.00;101457.03;1745359;82;21018;-75
2022/12/29 02:42:06;;;;;;;14.43;6.30;;;;;;;-2.06;100.00;101457.84;1744886;82;20994;-75
2022/12/29 02:44:58;;;;;;;18.07;7.60;;;;;;;-2.05;100.00;101455.57;1742119;82;21073;-75
2022/12/29 02:48:00;;;;;;;16.13;6.63;;;;;;;-2.04;100.00;101454.66;1745119;82;21069;-74
2022/12/29 02:50:38;;;;;;;;;;;;;;;-2.07;100.00;101453.00;1783100;80;21055;-75
2022/12/29 02:53:08;;;;;;;12.33;5.50;;;;;;;-2.08;100.00;101449.94;1780051;80;20095;-75
2022/12/29 02:55:35;;;;;;;14.80;6.00;;;;;;;-2.08;100.00;101459.21;1721910;82;20994;-75
2022/12/29 02:58:15;;;;;;;15.07;6.03;;;;;;;-2.07;100.00;101457.42;1745196;82;20983;-75
2022/12/29 03:01:15;;;;;;;13.07;5.47;;;;;;;-2.07;100.00;101465.37;1745032;82;21085;-75
2022/12/29 03:04:27;;;;;;;15.90;6.10;;;;;;;-2.07;100.00;101463.61;1780648;80;21489;-76
2022/12/29 03:07:00;;;;;;;12.40;5.70;;;;;;;-2.05;100.00;101451.16;1780882;80;21043;-75
2022/12/29 03:09:46;;;;;;;13.27;5.63;;;;;;;-2.05;100.00;101448.51;1745203;82;21030;-75
2022/12/29 03:18:22;;;;;;;15.23;5.67;;;;;;;-2.02;100.00;101446.19;1744887;82;21065;-75
2022/12/29 03:20:59;;;;;;;12.70;5.23;;;;;;;-2.03;100.00;101453.29;1781527;80;21007;-75
2022/12/29 03:23:29;;;;;;;15.43;5.97;;;;;;;-2.00;100.00;101460.25;1780533;80;21015;-76
2022/12/29 03:25:59;;;;;;;13.27;6.10;;;;;;;-1.98;100.00;101457.11;1745395;82;20998;-76
2022/12/29 03:28:34;;;;;;;15.35;5.75;;;;;;;-1.95;100.00;101454.32;1780981;80;21030;-75
2022/12/29 03:31:02;;;;;;;;;;;;;;;-1.94;100.00;101458.72;1715670;82;21029;-75
2022/12/29 03:33:30;;;;;;;11.73;5.30;;;;;;;-1.91;100.00;101453.31;1781698;80;20095;-75
2022/12/29 03:36:02;;;;;;;15.53;6.23;;;;;;;-1.87;100.00;101462.88;1781538;80;21050;-75
2022/12/29 03:38:50;;;;;;;11.80;5.70;;;;;;;-1.83;100.00;101456.99;1745238;81;20994;-76
2022/12/29 03:41:21;;;;;;;13.83;5.73;;;;;;;-1.78;100.00;101459.02;1780632;80;21051;-75
2022/12/29 03:43:48;;;;;;;12.80;5.70;;;;;;;-1.75;100.00;101453.61;1781566;80;21018;-75
2022/12/29 03:46:14;;;;;;;12.40;5.57;;;;;;;-1.75;100.00;101441.67;1780712;80;21023;-76
2022/12/29 03:48:41;;;;;;;12.83;6.10;;;;;;;-1.72;100.00;101448.16;1781002;80;21042;-75
2022/12/29 03:51:09;;;;;;;17.07;5.97;;;;;;;-1.69;100.00;101452.50;1781003;80;20991;-75
2022/12/29 03:53:36;;;;;;;12.27;5.93;;;;;;;-1.69;100.00;101446.73;1781298;80;21495;-76
2022/12/29 03:56:04;;;;;;;12.07;5.80;;;;;;;-1.71;100.00;101443.27;1780904;80;21035;-75
2022/12/29 03:58:32;;;;;;;11.17;5.57;;;;;;;-1.73;100.00;101447.78;1745279;81;21057;-76
2022/12/29 04:01:01;;;;;;;12.50;5.23;;;;;;;-1.75;100.00;101439.02;1781014;80;21007;-75
2022/12/29 04:03:31;;;;;;;10.57;5.10;;;;;;;-1.75;100.00;101444.33;1780560;80;21038;-75
2022/12/29 04:05:58;;;;;;;14.23;6.63;;;;;;;-1.76;100.00;101439.45;1744993;82;21046;-75
2022/12/29 04:08:26;;;;;;;14.80;6.50;;;;;;;-1.75;100.00;101433.25;1780775;80;21057;-76
2022/12/29 04:10:54;;;;;;;15.77;6.77;;;;;;;-1.75;100.00;101439.88;1780664;80;21023;-75
2022/12/29 04:13:22;;;;;;;22.27;8.40;;;;;;;-1.76;100.00;101434.16;1780977;80;21014;-75
2022/12/29 04:15:51;;;;;;;19.87;8.97;;;;;;;-1.75;100.00;101441.20;1780803;80;21093;-75
2022/12/29 04:18:19;;;;;;;18.53;9.03;;;;;;;-1.76;100.00;101434.63;1781096;80;21074;-76
2022/12/29 04:21:03;;;;;;;18.57;8.43;;;;;;;-1.75;100.00;101432.39;1780434;80;21043;-75
2022/12/29 04:23:35;;;;;;;18.50;7.67;;;;;;;-1.76;100.00;101431.50;1781151;80;21015;-75
2022/12/29 04:26:03;;;;;;;14.93;6.70;;;;;;;-1.77;100.00;101431.55;1781077;80;21019;-75
2022/12/29 04:28:30;;;;;;;13.67;6.20;;;;;;;-1.77;100.00;101437.75;1780718;80;20991;-75
2022/12/29 04:31:05;;;;;;;13.17;6.80;;;;;;;-1.77;100.00;101444.38;1744509;82;21038;-75
2022/12/29 04:33:39;;;;;;;15.47;6.43;;;;;;;-1.77;100.00;101436.86;1780114;79;21016;-76
2022/12/29 04:36:07;;;;;;;16.10;6.20;;;;;;;-1.76;100.00;101434.63;1780785;80;21027;-76
2022/12/29 04:38:34;;;;;;;17.50;7.63;;;;;;;-1.76;100.00;101440.78;1745186;82;20978;-75
2022/12/29 04:41:04;;;;;;;13.83;6.70;;;;;;;-1.76;100.00;101443.44;1781674;80;21023;-75
2022/12/29 04:43:32;;;;;;;14.40;6.83;;;;;;;-1.74;100.00;101442.91;1744801;82;21091;-76
2022/12/29 04:46:01;;;;;;;12.33;6.53;;;;;;;-1.75;100.00;101442.53;1780232;80;20983;-76
2022/12/29 04:48:30;;;;;;;13.53;6.60;;;;;;;-1.73;100.00;101447.30;1744674;82;20998;-76
2022/12/29 04:51:15;;;;;;;14.20;6.37;;;;;;;-1.73;100.00;101442.00;1744939;82;21047;-75
2022/12/29 04:53:42;;;;;;;17.30;6.93;;;;;;;-1.70;100.00;101444.13;1744901;82;21025;-76
2022/12/29 04:56:09;;;;;;;17.63;7.27;;;;;;;-1.70;100.00;101442.34;1745115;82;20967;-76
2022/12/29 04:58:37;;;;;;;15.03;6.97;;;;;;;-1.69;100.00;101433.47;1744779;82;21055;-75
2022/12/29 05:01:05;;;;;;;12.53;6.20;;;;;;;-1.69;100.00;101435.27;1781467;80;21018;-74
2022/12/29 05:03:32;;;;;;;14.83;7.30;;;;;;;-1.70;100.00;101430.88;1780589;80;21039;-76
2022/12/29 05:05:59;;;;;;;13.17;6.07;;;;;;;-1.73;100.00;101439.83;1781018;80;21481;-75
2022/12/29 05:08:27;;;;;;;13.30;6.33;;;;;;;-1.74;100.00;101442.06;1736764;82;21484;-75
2022/12/29 05:10:55;;;;;;;11.83;6.37;;;;;;;-1.74;100.00;101440.73;1781139;80;21010;-75
2022/12/29 05:13:26;;;;;;;12.13;6.23;;;;;;;-1.76;100.00;101442.58;1781822;80;21025;-75
2022/12/29 05:15:55;;;;;;;12.50;5.97;;;;;;;-1.75;100.00;101446.50;1780726;80;21007;-76
2022/12/29 05:18:24;;;;;;;13.50;5.77;;;;;;;-1.77;100.00;101444.38;1780778;80;21063;-74
2022/12/29 05:20:54;;;;;;;12.77;6.30;;;;;;;-1.75;100.00;101435.05;1780716;80;20968;-76
2022/12/29 05:23:23;;;;;;;12.50;5.53;;;;;;;-1.74;100.00;101432.78;1780952;80;20996;-75
2022/12/29 05:25:52;;;;;;;12.43;6.60;;;;;;;-1.73;100.00;101428.74;1780222;80;21078;-75
2022/12/29 05:28:34;;;;;;;13.63;6.13;;;;;;;-1.74;100.00;101432.78;1744329;82;21038;-75
2022/12/29 05:31:12;;;;;;;11.20;5.53;;;;;;;-1.74;100.00;101443.38;1780580;80;21031;-75
2022/12/29 05:33:39;;;;;;;10.93;5.47;;;;;;;-1.76;100.00;101441.25;1745204;81;21069;-75
2022/12/29 05:36:08;;;;;;;13.10;6.57;;;;;;;-1.77;100.00;101450.13;1745348;82;20998;-75
2022/12/29 05:38:37;;;;;;;13.47;5.80;;;;;;;-1.80;100.00;101448.93;1775812;80;21473;-76
2022/12/29 05:41:04;;;;;;;13.83;6.50;;;;;;;-1.81;100.00;101453.81;1780413;80;21461;-75
2022/12/29 05:43:38;;;;;;;13.00;5.73;;;;;;;-1.83;100.00;101459.17;1731508;80;21007;-75
2022/12/29 10:22:14;;;;;;;12.10;5.77;;;;;;;2.63;100.00;101150.58;1847209;77;27606;-70
2022/12/29 10:24:48;;;;;;;14.63;6.00;;;;;;;2.64;100.00;101094.05;1800591;79;20975;-69
2022/12/29 10:27:15;;;;;;;13.03;6.07;;;;;;;2.68;100.00;101095.57;1797202;79;21704;-68
2022/12/29 10:29:53;;;;;;;10.37;5.17;;;;;;;2.74;100.00;101091.66;1792183;79;21567;-69
2022/12/29 10:33:08;;;;;;;12.57;5.03;;;;;;;2.86;100.00;101088.22;1807502;78;21026;-70
2022/12/29 10:39:29;;;;;;;13.13;5.87;;;;;;;3.12;100.00;101082.58;1808543;78;21027;-70
2022/12/29 10:42:22;;;;;;;13.00;4.80;;;;;;;3.42;100.00;101073.55;1809395;78;21061;-68
2022/12/29 10:44:55;;;;;;;12.97;5.83;;;;;;;3.53;100.00;101084.39;1805502;78;20986;-70
2022/12/29 10:47:26;;;;;;;11.43;5.23;;;;;;;3.56;100.00;101090.89;1820547;77;21017;-69
2022/12/29 10:50:30;;;;;;;7.47;4.50;;;;;;;3.76;100.00;101090.06;1835554;77;20983;-68
2022/12/29 10:53:04;;;;;;;;;;;;;;;3.92;100.00;101089.90;1784259;78;21055;-68
2022/12/29 10:55:35;;;;;;;9.03;4.37;;;;;;;3.87;100.00;101094.20;1771903;79;20097;-68
2022/12/29 10:58:38;;;;;;;8.53;4.57;;;;;;;3.74;100.00;101117.39;1785569;80;21027;-69
2022/12/29 11:01:08;;;;;;;8.63;4.80;;;;;;;3.57;100.00;101118.48;1808933;78;21166;-69
2022/12/29 11:03:52;;;;;;;8.47;4.87;;;;;;;3.49;100.00;101111.42;1805242;78;21005;-68
2022/12/29 11:14:16;;;;;;;20.13;9.13;;;;;;;4.07;100.00;101105.39;1813874;77;21019;-69
2022/12/29 11:16:44;;;;;;;16.00;7.55;;;;;;;4.16;100.00;101100.75;1810397;78;21060;-69
2022/12/29 11:19:25;;;;;;;27.67;10.17;;;;;;;4.12;100.00;101108.13;1797750;77;20989;-69
2022/12/29 11:21:56;;;;;;;19.83;8.87;;;;;;;4.06;100.00;101109.90;1797793;78;21009;-70
2022/12/29 11:24:27;;;;;;;;;;;;;;;4.03;100.00;101106.57;1810840;77;21005;-68
2022/12/29 11:26:58;;;;;;;9.10;4.57;;;;;;;4.06;100.00;101103.20;1825568;77;20105;-69
2022/12/29 11:29:29;;;;;;;9.18;5.05;;;;;;;4.13;100.00;101103.17;1825323;78;20966;-68
2022/12/29 11:31:58;;;;;;;11.93;5.87;;;;;;;4.22;100.00;101104.86;1761856;80;21113;-68
2022/12/29 11:34:34;;;;;;;12.70;6.07;;;;;;;4.22;100.00;101105.70;1783619;78;21010;-68
2022/12/29 11:37:38;;;;;;;10.63;5.40;;;;;;;4.35;100.00;101109.25;1809436;78;21002;-67
2022/12/29 11:40:17;;;;;;;11.03;5.33;;;;;;;4.43;100.00;101109.23;1792412;78;21250;-69
2022/12/29 11:42:56;;;;;;;11.47;5.30;;;;;;;4.57;100.00;101103.78;1776654;78;21002;-70
2022/12/29 11:45:34;;;;;;;13.37;6.10;;;;;;;4.50;100.00;101106.02;1782879;78;21011;-68
2022/12/29 11:48:12;;;;;;;14.40;5.53;;;;;;;4.43;100.00;101110.08;1808593;78;21053;-68
2022/12/29 11:50:40;;;;;;;11.60;5.13;;;;;;;4.58;100.00;101112.17;1777710;78;21019;-69
2022/12/29 11:53:26;;;;;;;9.40;5.03;;;;;;;4.75;100.00;101115.88;1762875;80;21468;-69
2022/12/29 11:56:02;;;;;;;17.07;8.17;;;;;;;5.05;100.00;101122.73;1750338;80;21029;-72
2022/12/29 11:58:36;;;;;;;16.63;7.00;;;;;;;5.29;100.00;101121.48;1729547;79;21066;-72
2022/12/29 12:01:37;;;;;;;10.57;5.50;;;;;;;5.51;100.00;101119.91;1735516;81;21025;-71
2022/12/29 12:04:10;;;;;;;8.20;4.47;;;;;;;5.60;100.00;101121.06;1747523;81;21019;-72
2022/12/29 12:06:46;;;;;;;10.75;5.10;;;;;;;5.53;100.00;101140.77;1711307;82;21074;-71
2022/12/29 12:13:40;;;;;;;;;;;;;;;5.90;100.00;101146.13;1808286;78;21030;-77
2022/12/29 12:16:15;;;;;;;12.67;5.03;;;;;;;6.24;100.00;101148.51;1791553;79;20113;-73
2022/12/29 12:18:57;;;;;;;10.27;5.13;;;;;;;6.26;100.00;101149.24;1791529;79;21053;-71
2022/12/29 12:21:40;;;;;;;12.07;5.20;;;;;;;6.13;100.00;101161.90;1794945;79;21148;-71
2022/12/29 12:24:49;;;;;;;9.53;4.93;;;;;;;6.07;100.00;101167.70;1779279;79;21394;-71
2022/12/29 12:27:30;;;;;;;10.50;5.27;;;;;;;5.92;100.00;101166.16;1784503;79;21081;-70
2022/12/29 12:30:16;;;;;;;14.00;5.40;;;;;;;5.69;100.00;101178.94;1726858;81;21141;-71
2022/12/29 12:32:52;;;;;;;16.00;7.17;;;;;;;5.53;100.00;101181.52;1713129;82;21049;-71
2022/12/29 12:35:46;;;;;;;18.17;8.37;;;;;;;5.30;100.00;101179.98;1746795;80;21003;-71
2022/12/29 12:38:24;;;;;;;13.83;6.07;;;;;;;5.17;100.00;101179.13;1745735;80;21034;-71
2022/12/29 12:40:58;;;;;;;10.00;4.87;;;;;;;4.98;100.00;101182.27;1773106;80;21030;-71
2022/12/29 12:44:08;;;;;;;8.50;4.40;;;;;;;4.83;100.00;101182.33;1762525;80;21069;-70
2022/12/29 12:47:19;;;;;;;12.23;5.90;;;;;;;4.77;100.00;101178.75;1758951;80;21443;-69
2022/12/29 12:50:11;;;;;;;11.33;4.87;;;;;;;4.78;100.00;101176.46;1759703;80;21112;-70
2022/12/29 12:53:00;;;;;;;11.30;4.90;;;;;;;4.72;100.00;101171.51;1752548;80;21081;-70
2022/12/29 12:55:35;;;;;;;10.80;5.33;;;;;;;4.50;100.00;101166.77;1796573;78;21015;-71
2022/12/29 12:58:45;;;;;;;10.07;4.60;;;;;;;4.33;100.00;101177.27;1788810;78;20982;-69
2022/12/29 13:01:18;;;;;;;12.73;5.33;;;;;;;4.13;100.00;101186.64;1749326;80;21052;-68
2022/12/29 13:04:00;;;;;;;18.27;7.20;;;;;;;3.96;100.00;101189.08;1782729;78;21090;-69
2022/12/29 13:06:51;;;;;;;15.23;6.53;;;;;;;3.77;100.00;101185.39;1768647;78;21538;-67
2022/12/29 13:09:52;;;;;;;13.60;6.17;;;;;;;3.64;100.00;101188.49;1817771;77;21551;-68
2022/12/29 13:12:37;;;;;;;12.13;5.40;;;;;;;3.45;100.00;101184.78;1777946;79;21046;-68
2022/12/29 13:15:42;;;;;;;10.20;4.93;;;;;;;3.30;100.00;101189.30;1771431;78;21076;-69
2022/12/29 13:18:35;;;;;;;16.67;5.40;;;;;;;3.17;100.00;101180.70;1815676;77;21015;-69
2022/12/29 13:21:25;;;;;;;15.08;5.60;;;;;;;3.00;100.00;101173.72;1829591;78;20963;-67
2022/12/29 13:24:10;;;;;;;12.43;5.60;;;;;;;2.89;100.00;101176.20;1780278;78;21069;-69
2022/12/29 13:26:48;;;;;;;11.23;4.83;;;;;;;2.76;100.00;101169.42;1799518;78;21054;-69
2022/12/29 13:29:35;;;;;;;12.40;5.53;;;;;;;2.63;100.00;101174.61;1805656;78;21042;-69
2022/12/29 13:32:32;;;;;;;11.93;4.80;;;;;;;2.57;100.00;101170.14;1791534;77;21033;-68
2022/12/29 13:35:32;;;;;;;10.73;5.47;;;;;;;2.50;100.00;101172.31;1779675;78;21542;-69
2022/12/29 13:38:20;;;;;;;9.10;4.50;;;;;;;2.46;100.00;101183.66;1791734;78;21484;-69
2022/12/29 13:40:51;;;;;;;8.73;4.43;;;;;;;2.41;100.00;101178.20;1783823;78;21487;-67
2022/12/29 13:43:18;;;;;;;12.43;5.20;;;;;;;2.38;100.00;101179.72;1775590;78;21258;-67
2022/12/29 13:45:45;;;;;;;11.53;5.37;;;;;;;2.33;100.00;101181.31;1770782;79;21070;-78
2022/12/29 13:48:22;;;;;;;10.87;4.77;;;;;;;2.31;100.00;101185.03;1770791;80;21039;-77
2022/12/29 13:50:54;;;;;;;11.57;6.00;;;;;;;2.28;100.00;101200.28;1753439;78;21014;-78
2022/12/29 13:53:51;;;;;;;6.50;3.92;;;;;;;2.30;100.00;101200.64;1758254;77;20976;-78
2022/12/29 13:56:45;;;;;;;17.03;6.17;;;;;;;2.27;100.00;101193.69;1764851;77;21033;-78
2022/12/29 13:59:21;;;;;;;;;;;;;;;2.26;100.00;101205.30;1831938;78;21472;-77
2022/12/29 14:02:06;;;;;;;15.43;5.90;;;;;;;2.23;100.00;101199.69;1823105;78;20108;-73
2022/12/29 14:04:34;;;;;;;14.63;5.60;;;;;;;2.20;100.00;101203.00;1814781;78;21027;-76
2022/12/29 14:07:08;;;;;;;12.87;5.77;;;;;;;2.16;100.00;101198.32;1825075;78;21009;-74
2022/12/29 14:09:50;;;;;;;10.67;4.87;;;;;;;2.15;100.00;101207.74;1824393;77;21037;-76
2022/12/29 14:12:32;;;;;;;12.03;5.53;;;;;;;2.09;100.00;101199.14;1801428;78;21022;-76
2022/12/29 14:15:10;;;;;;;14.50;5.67;;;;;;;2.06;100.00;101199.79;1782827;79;21031;-75
2022/12/29 14:17:44;;;;;;;11.53;5.63;;;;;;;2.01;100.00;101200.52;1793114;79;21449;-75
2022/12/29 14:20:21;;;;;;;17.13;6.47;;;;;;;1.96;100.00;101203.44;1797287;79;21039;-75
2022/12/29 14:23:03;;;;;;;13.77;6.87;;;;;;;1.92;100.00;101208.58;1780610;79;21069;-75
2022/12/29 14:26:08;;;;;;;13.33;6.23;;;;;;;1.92;100.00;101208.58;1787243;79;21006;-77
2022/12/29 14:28:45;;;;;;;12.63;5.80;;;;;;;1.90;100.00;101209.14;1798499;78;21238;-77
2022/12/29 14:31:21;;;;;;;14.13;6.60;;;;;;;1.87;100.00;101221.30;1787314;78;21006;-76
2022/12/29 14:34:15;;;;;;;15.80;6.20;;;;;;;1.86;100.00;101224.45;1792748;78;20963;-75
2022/12/29 14:36:55;;;;;;;15.03;6.93;;;;;;;1.86;100.00;101224.45;1768959;79;21046;-76
2022/12/29 14:39:42;;;;;;;16.77;7.00;;;;;;;1.85;100.00;101236.05;1740283;80;21041;-74
2022/12/29 14:42:14;;;;;;;13.27;6.13;;;;;;;1.86;100.00;101232.91;1759905;80;20999;-76
2022/12/29 14:45:04;;;;;;;11.70;5.80;;;;;;;1.85;100.00;101231.20;1730366;81;21024;-74
2022/12/29 14:47:38;;;;;;;11.77;5.43;;;;;;;1.83;100.00;101231.77;1730331;81;21002;-75
2022/12/29 14:50:39;;;;;;;13.77;6.20;;;;;;;1.83;100.00;101217.95;1819346;77;20971;-76
2022/12/29 14:53:06;;;;;;;14.70;6.47;;;;;;;1.83;100.00;101231.77;1810617;78;21013;-76
2022/12/29 14:55:49;;;;;;;13.30;6.53;;;;;;;1.85;100.00;101235.20;1816403;78;21179;-76
2022/12/29 14:58:32;;;;;;;12.55;5.22;;;;;;;1.88;100.00;101231.05;1790135;78;21433;-74
2022/12/29 15:00:59;;;;;;;13.18;5.50;;;;;;;1.89;100.00;101241.62;1819590;78;21003;-68
2022/12/29 15:03:37;;;;;;;11.70;5.17;;;;;;;1.88;100.00;101243.05;1802587;77;21615;-70
2022/12/29 15:06:10;;;;;;;8.90;5.03;;;;;;;1.87;100.00;101244.83;1814467;77;21113;-74
2022/12/29 15:08:41;;;;;;;10.88;4.75;;;;;;;1.89;100.00;101245.62;1815778;77;21115;-74
2022/12/29 15:11:23;;;;;;;10.23;4.83;;;;;;;1.88;100.00;101243.89;1786012;78;21026;-75
2022/12/29 15:13:50;;;;;;;9.10;4.53;;;;;;;1.89;100.00;101254.97;1800163;78;20995;-74
2022/12/29 15:16:35;;;;;;;14.63;5.60;;;;;;;1.91;100.00;101256.19;1806577;78;21120;-73
2022/12/29 15:19:02;;;;;;;11.43;5.37;;;;;;;1.93;100.00;101246.77;1784491;78;21615;-74
2022/12/29 15:21:33;;;;;;;12.07;5.17;;;;;;;1.94;100.00;101250.69;1815471;78;21096;-75
2022/12/29 15:24:00;;;;;;;8.40;4.80;;;;;;;1.96;100.00;101242.60;1786923;78;21031;-75
2022/12/29 15:26:43;;;;;;;13.03;5.83;;;;;;;1.98;100.00;101246.05;1803025;77;20973;-77
2022/12/29 15:29:38;;;;;;;13.57;5.70;;;;;;;1.97;100.00;101252.34;1820937;77;20983;-75
2022/12/29 15:32:26;;;;;;;14.43;6.33;;;;;;;1.99;100.00;101252.62;1838584;77;21045;-74
2022/12/29 15:35:02;;;;;;;13.40;5.63;;;;;;;2.00;100.00;101233.02;1827170;77;21560;-75
2022/12/29 15:37:33;;;;;;;13.53;6.43;;;;;;;2.01;100.00;101239.20;1829944;77;21057;-75
2022/12/29 15:40:00;;;;;;;14.57;5.87;;;;;;;1.98;100.00;101236.70;1835358;78;21429;-75
2022/12/29 15:42:47;;;;;;;11.20;5.37;;;;;;;1.96;100.00;101233.27;1838599;78;20987;-75
2022/12/29 15:45:15;;;;;;;23.20;8.33;;;;;;;1.96;100.00;101227.45;1840351;78;21565;-74
2022/12/29 15:47:44;;;;;;;16.43;5.80;;;;;;;1.99;100.00;101231.28;1839228;78;21053;-75
2022/12/29 15:50:22;;;;;;;15.23;5.67;;;;;;;1.98;100.00;101224.22;1810685;78;20995;-74
2022/12/29 15:52:49;;;;;;;15.93;6.07;;;;;;;2.00;100.00;101221.47;1836466;77;21546;-74
2022/12/29 15:55:36;;;;;;;17.23;5.60;;;;;;;1.96;100.00;101219.93;1833043;77;21022;-74
2022/12/29 15:58:08;;;;;;;11.63;5.33;;;;;;;1.92;100.00;101218.39;1833191;78;21475;-74
2022/12/29 16:00:37;;;;;;;15.27;6.23;;;;;;;1.89;100.00;101219.41;1836115;77;21009;-75
2022/12/29 16:03:06;;;;;;;13.70;5.63;;;;;;;1.85;100.00;101213.39;1837815;78;21530;-75
2022/12/29 16:05:35;;;;;;;11.87;5.03;;;;;;;1.82;100.00;101214.03;1832559;77;21065;-75
2022/12/29 16:08:03;;;;;;;14.17;5.40;;;;;;;1.79;100.00;101212.41;1836472;77;21015;-75
2022/12/29 16:10:38;;;;;;;16.27;5.00;;;;;;;1.78;100.00;101214.67;1832413;77;21065;-75
2022/12/29 16:13:15;;;;;;;13.80;5.10;;;;;;;1.75;100.00;101209.51;1834278;77;20995;-74
2022/12/29 16:15:48;;;;;;;10.10;4.73;;;;;;;1.74;100.00;101219.80;1834602;77;21018;-75
2022/12/29 16:18:26;;;;;;;11.33;4.62;;;;;;;1.70;100.00;101212.45;1830496;77;20998;-75
2022/12/29 16:20:54;;;;;;;7.70;4.33;;;;;;;1.68;100.00;101217.02;1843366;77;20987;-75
2022/12/29 16:23:26;;;;;;;7.67;4.00;;;;;;;1.66;100.00;101202.03;1834385;77;21480;-74
2022/12/29 16:25:57;;;;;;;7.33;4.13;;;;;;;1.65;100.00;101201.66;1834487;77;21006;-75
2022/12/29 16:28:35;;;;;;;10.50;4.63;;;;;;;1.63;100.00;101203.08;1841037;78;21006;-75
2022/12/29 16:31:07;;;;;;;8.47;4.27;;;;;;;1.61;100.00;101202.75;1829142;77;21080;-75
2022/12/29 16:33:47;;;;;;;8.43;4.63;;;;;;;1.59;100.00;101199.31;1826802;78;21007;-75
2022/12/29 16:36:34;;;;;;;7.30;4.17;;;;;;;1.59;100.00;101200.17;1831837;77;20998;-75
2022/12/29 16:39:28;;;;;;;6.60;4.23;;;;;;;1.60;100.00;101203.23;1837021;78;21050;-73
2022/12/29 16:41:54;;;;;;;;;;;;;;;1.59;100.00;101214.83;1832143;77;21041;-72
2022/12/29 16:44:30;;;;;;;5.37;3.67;;;;;;;1.57;100.00;101198.55;1795967;78;20131;-75
2022/12/29 16:47:13;;;;;;;8.13;4.03;;;;;;;1.54;100.00;101201.38;1839400;77;21042;-75
2022/12/29 16:49:46;;;;;;;8.68;3.87;;;;;;;1.53;100.00;101202.34;1832273;77;20987;-74
2022/12/29 16:52:18;;;;;;;7.73;4.30;;;;;;;1.52;100.00;101206.78;1829587;77;21013;-75
2022/12/29 16:54:50;;;;;;;9.40;4.60;;;;;;;1.53;100.00;101210.34;1831614;77;21016;-75
2022/12/29 16:57:24;;;;;;;10.03;4.20;;;;;;;1.53;100.00;101209.00;1810006;78;21022;-73
2022/12/29 16:59:52;;;;;;;9.27;4.30;;;;;;;1.55;100.00;101215.95;1835536;77;20974;-74
2022/12/29 17:02:21;;;;;;;5.77;3.87;;;;;;;1.58;100.00;101215.80;1842541;77;20975;-75
2022/12/29 17:04:52;;;;;;;9.67;3.93;;;;;;;1.61;100.00;101212.08;1836341;78;20983;-75
2022/12/29 17:07:53;;;;;;;6.40;3.27;;;;;;;1.61;100.00;101207.63;1799004;79;21560;-74
2022/12/29 17:13:25;;;;;;;8.03;4.00;;;;;;;1.61;100.00;101212.97;1787967;78;21097;-75
2022/12/29 17:15:52;;;;;;;6.53;3.80;;;;;;;1.61;100.00;101217.41;1790629;79;21007;-75
2022/12/29 17:18:19;;;;;;;9.57;4.00;;;;;;;1.60;100.00;101213.90;1802079;79;20971;-75
2022/12/29 17:20:46;;;;;;;6.73;4.17;;;;;;;1.61;100.00;101210.30;1799328;79;20993;-75
2022/12/29 17:23:15;;;;;;;10.97;4.50;;;;;;;1.62;100.00;101204.48;1810752;79;21035;-75
2022/12/29 17:25:42;;;;;;;7.63;3.80;;;;;;;1.62;100.00;101203.16;1810675;79;20987;-75